createdAt,value
2018-11-27T00:00:33.581Z,12.20
2018-11-27T00:03:03.972Z,12.40
2018-11-27T00:05:33.044Z,12.60
2018-11-27T00:08:07.720Z,12.50
2018-11-27T00:10:37.944Z,12.50
2018-11-27T00:13:06.424Z,12.50
2018-11-27T00:15:34.820Z,12.50
2018-11-27T00:18:03.181Z,12.50
2018-11-27T00:20:31.521Z,12.60
2018-11-27T00:22:59.836Z,12.60
2018-11-27T00:25:28.195Z,12.90
2018-11-27T00:27:56.524Z,13.30
2018-11-27T00:30:24.850Z,13.40
2018-11-27T00:32:53.184Z,13.50
2018-11-27T00:35:21.566Z,13.50
2018-11-27T00:37:49.951Z,13.40
2018-11-27T00:40:21.523Z,13.30
2018-11-27T00:42:50.368Z,13.30
2018-11-27T00:45:19.761Z,13.20
2018-11-27T00:47:49.284Z,13.40
2018-11-27T00:50:18.743Z,13.40
2018-11-27T00:52:47.164Z,13.30
2018-11-27T00:55:16.385Z,13.20
2018-11-27T00:57:48.731Z,13.10
2018-11-27T01:00:19.019Z,13.20
2018-11-27T01:02:47.496Z,13.40
2018-11-27T01:05:17.066Z,13.10
2018-11-27T01:07:45.531Z,12.80
2018-11-27T01:10:18.567Z,12.70
2018-11-27T01:12:46.935Z,12.70
2018-11-27T01:15:15.691Z,13.00
2018-11-27T01:17:46.971Z,13.00
2018-11-27T01:20:18.120Z,13.10
2018-11-27T01:22:46.552Z,13.20
2018-11-27T01:25:15.028Z,13.30
2018-11-27T01:27:43.364Z,13.40
2018-11-27T01:30:16.556Z,13.40
2018-11-27T01:32:44.992Z,13.40
2018-11-27T01:35:19.407Z,13.30
2018-11-27T01:37:48.594Z,13.30
2018-11-27T01:40:17.997Z,13.30
2018-11-27T01:42:47.244Z,13.30
2018-11-27T01:45:16.780Z,13.30
2018-11-27T01:47:45.227Z,13.20
2018-11-27T01:50:14.324Z,12.90
2018-11-27T01:52:42.757Z,13.00
2018-11-27T01:55:12.140Z,13.00
2018-11-27T01:57:40.561Z,13.00
2018-11-27T02:00:15.141Z,12.90
2018-11-27T02:02:43.520Z,12.90
2018-11-27T02:05:11.837Z,12.90
2018-11-27T02:07:40.206Z,12.80
2018-11-27T02:10:10.788Z,12.90
2018-11-27T02:12:39.612Z,12.80
2018-11-27T02:15:11.608Z,12.80
2018-11-27T02:17:40.043Z,12.80
2018-11-27T02:20:09.860Z,12.60
2018-11-27T02:22:38.335Z,12.60
2018-11-27T02:25:10.192Z,12.60
2018-11-27T02:27:38.928Z,12.70
2018-11-27T02:30:10.382Z,12.70
2018-11-27T02:32:40.213Z,12.70
2018-11-27T02:35:14.677Z,12.70
2018-11-27T02:37:43.110Z,12.60
2018-11-27T02:40:15.360Z,12.40
2018-11-27T02:42:43.819Z,12.30
2018-11-27T02:45:12.961Z,12.10
2018-11-27T02:47:41.528Z,12.20
2018-11-27T02:50:14.336Z,12.10
2018-11-27T02:52:42.688Z,12.20
2018-11-27T02:55:14.048Z,12.40
2018-11-27T02:57:42.432Z,12.20
2018-11-27T03:00:13.480Z,12.10
2018-11-27T03:02:41.865Z,12.30
2018-11-27T03:05:19.491Z,12.30
2018-11-27T03:07:47.875Z,12.20
2018-11-27T03:10:16.368Z,12.30
2018-11-27T03:12:44.785Z,12.20
2018-11-27T03:15:16.056Z,12.20
2018-11-27T03:17:44.574Z,12.30
2018-11-27T03:20:14.798Z,12.20
2018-11-27T03:22:43.257Z,12.30
2018-11-27T03:25:14.398Z,12.10
2018-11-27T03:27:43.071Z,12.10
2018-11-27T03:30:12.556Z,12.00
2018-11-27T03:32:40.921Z,12.00
2018-11-27T03:35:10.783Z,11.90
2018-11-27T03:37:39.147Z,11.80
2018-11-27T03:40:13.669Z,11.80
2018-11-27T03:42:42.054Z,11.80
2018-11-27T03:45:11.720Z,11.70
2018-11-27T03:47:40.080Z,11.70
2018-11-27T03:50:27.002Z,11.60
2018-11-27T03:52:55.424Z,11.60
2018-11-27T03:55:23.841Z,11.50
2018-11-27T03:57:52.233Z,11.60
2018-11-27T04:00:23.277Z,11.50
2018-11-27T04:03:02.116Z,11.50
2018-11-27T04:05:30.540Z,11.40
2018-11-27T04:07:59.109Z,11.40
2018-11-27T04:10:27.455Z,11.40
2018-11-27T04:12:55.828Z,11.30
2018-11-27T04:15:24.264Z,11.40
2018-11-27T04:17:52.674Z,11.30
2018-11-27T04:20:21.040Z,11.20
2018-11-27T04:22:49.405Z,11.10
2018-11-27T04:25:18.289Z,11.20
2018-11-27T04:27:47.157Z,11.30
2018-11-27T04:30:17.024Z,11.40
2018-11-27T04:32:45.404Z,11.60
2018-11-27T04:35:14.910Z,11.60
2018-11-27T04:37:43.277Z,11.70
2018-11-27T04:40:12.797Z,11.60
2018-11-27T04:42:41.190Z,11.70
2018-11-27T04:45:14.273Z,11.60
2018-11-27T04:47:42.625Z,11.50
2018-11-27T04:50:12.183Z,11.50
2018-11-27T04:52:40.624Z,11.50
2018-11-27T04:55:11.920Z,11.50
2018-11-27T04:57:40.466Z,11.50
2018-11-27T05:00:13.080Z,11.40
2018-11-27T05:02:41.459Z,11.50
2018-11-27T05:05:10.163Z,11.40
2018-11-27T05:07:38.496Z,11.40
2018-11-27T05:10:09.885Z,11.30
2018-11-27T05:12:38.364Z,11.40
2018-11-27T05:15:09.583Z,11.30
2018-11-27T05:17:37.952Z,11.30
2018-11-27T05:20:07.707Z,11.50
2018-11-27T05:22:36.337Z,11.50
2018-11-27T05:25:06.148Z,11.30
2018-11-27T05:27:34.464Z,11.30
2018-11-27T05:30:03.279Z,11.30
2018-11-27T05:32:31.595Z,11.30
2018-11-27T05:34:59.988Z,11.20
2018-11-27T05:37:28.325Z,11.20
2018-11-27T05:39:56.668Z,11.10
2018-11-27T05:42:25.006Z,11.10
2018-11-27T05:44:53.409Z,11.20
2018-11-27T05:47:21.720Z,11.20
2018-11-27T05:49:50.019Z,11.30
2018-11-27T05:52:18.366Z,11.30
2018-11-27T05:54:46.758Z,11.40
2018-11-27T05:57:15.125Z,11.20
2018-11-27T05:59:43.443Z,11.30
2018-11-27T06:02:11.768Z,11.40
2018-11-27T06:04:40.170Z,11.30
2018-11-27T06:07:08.508Z,11.40
2018-11-27T06:09:36.888Z,11.60
2018-11-27T06:12:05.388Z,11.60
2018-11-27T06:14:33.720Z,11.70
2018-11-27T06:17:02.031Z,11.80
2018-11-27T06:19:30.434Z,11.70
2018-11-27T06:21:58.792Z,11.60
2018-11-27T06:24:27.412Z,11.60
2018-11-27T06:26:55.724Z,11.60
2018-11-27T06:29:24.132Z,11.50
2018-11-27T06:31:52.926Z,11.50
2018-11-27T06:34:21.260Z,11.40
2018-11-27T06:36:49.656Z,11.40
2018-11-27T06:39:18.041Z,11.40
2018-11-27T06:41:46.417Z,11.50
2018-11-27T06:44:15.220Z,11.30
2018-11-27T06:46:43.716Z,11.30
2018-11-27T06:49:12.076Z,11.50
2018-11-27T06:51:40.435Z,11.50
2018-11-27T06:54:08.753Z,11.50
2018-11-27T06:56:37.199Z,11.60
2018-11-27T06:59:05.872Z,11.60
2018-11-27T07:01:34.276Z,11.60
2018-11-27T07:04:02.632Z,11.60
2018-11-27T07:06:30.980Z,11.70
2018-11-27T07:08:59.304Z,11.80
2018-11-27T07:11:27.656Z,11.80
2018-11-27T07:13:56.034Z,11.80
2018-11-27T07:16:24.348Z,11.80
2018-11-27T07:18:52.680Z,11.90
2018-11-27T07:21:21.095Z,11.90
2018-11-27T07:23:49.487Z,11.90
2018-11-27T07:26:17.819Z,11.90
2018-11-27T07:28:46.195Z,12.00
2018-11-27T07:31:14.628Z,12.00
2018-11-27T07:33:42.951Z,12.00
2018-11-27T07:36:11.299Z,12.20
2018-11-27T07:38:39.626Z,12.20
2018-11-27T07:41:07.996Z,12.20
2018-11-27T07:43:36.356Z,12.20
2018-11-27T07:46:04.813Z,12.20
2018-11-27T07:48:33.228Z,12.10
2018-11-27T07:51:01.615Z,12.10
2018-11-27T07:53:30.007Z,12.10
2018-11-27T07:55:58.407Z,12.20
2018-11-27T07:58:26.801Z,12.20
2018-11-27T08:00:55.204Z,12.20
2018-11-27T08:03:23.612Z,12.20
2018-11-27T08:05:51.956Z,12.20
2018-11-27T08:08:21.762Z,12.20
2018-11-27T08:10:50.221Z,12.20
2018-11-27T08:13:20.408Z,12.30
2018-11-27T08:15:48.844Z,12.20
2018-11-27T08:18:17.237Z,12.20
2018-11-27T08:20:45.961Z,12.30
2018-11-27T08:23:18.012Z,12.30
2018-11-27T08:25:46.407Z,12.30
2018-11-27T08:28:14.754Z,12.30
2018-11-27T08:30:43.537Z,12.40
2018-11-27T08:33:11.541Z,12.30
2018-11-27T08:35:39.933Z,12.40
2018-11-27T08:38:08.312Z,12.40
2018-11-27T08:40:38.213Z,12.40
2018-11-27T08:43:07.296Z,12.50
2018-11-27T08:45:35.671Z,12.60
2018-11-27T08:48:04.060Z,12.60
2018-11-27T08:50:32.819Z,12.50
2018-11-27T08:53:02.440Z,12.50
2018-11-27T08:55:36.543Z,12.20
2018-11-27T08:58:07.043Z,12.20
2018-11-27T09:00:35.505Z,12.40
2018-11-27T09:03:04.081Z,12.50
2018-11-27T09:05:32.533Z,12.60
2018-11-27T09:08:00.935Z,12.70
2018-11-27T09:10:29.328Z,12.80
2018-11-27T09:12:57.807Z,12.80
2018-11-27T09:15:26.060Z,12.90
2018-11-27T09:17:57.917Z,12.90
2018-11-27T09:20:26.656Z,13.00
2018-11-27T09:22:55.096Z,13.00
2018-11-27T09:25:23.509Z,13.00
2018-11-27T09:27:51.900Z,13.10
2018-11-27T09:30:21.722Z,13.20
2018-11-27T09:32:50.116Z,13.40
2018-11-27T09:35:18.562Z,13.50
2018-11-27T09:37:47.011Z,13.50
2018-11-27T09:40:16.715Z,13.50
2018-11-27T09:42:45.210Z,13.40
2018-11-27T09:45:16.610Z,13.50
2018-11-27T09:47:45.797Z,13.50
2018-11-27T09:50:14.740Z,13.60
2018-11-27T09:52:43.253Z,13.60
2018-11-27T09:55:13.652Z,13.50
2018-11-27T09:57:42.016Z,13.30
2018-11-27T10:00:17.432Z,13.30
2018-11-27T10:02:45.870Z,13.30
2018-11-27T10:05:14.560Z,13.50
2018-11-27T10:07:42.885Z,13.60
2018-11-27T10:10:13.195Z,13.70
2018-11-27T10:12:41.539Z,13.70
2018-11-27T10:19:38.287Z,13.40
2018-11-27T10:22:06.639Z,13.50
2018-11-27T10:24:34.955Z,13.60
2018-11-27T10:27:03.303Z,13.70
2018-11-27T10:29:31.656Z,13.60
2018-11-27T10:31:59.994Z,13.70
2018-11-27T10:34:28.347Z,13.90
2018-11-27T10:36:56.663Z,14.10
2018-11-27T10:39:28.736Z,14.10
2018-11-27T10:41:57.548Z,14.30
2018-11-27T10:44:26.315Z,14.00
2018-11-27T10:46:54.654Z,13.60
2018-11-27T10:49:23.005Z,13.60
2018-11-27T10:51:51.353Z,14.00
2018-11-27T10:54:19.669Z,14.20
2018-11-27T10:56:48.023Z,14.30
2018-11-27T10:59:16.369Z,14.20
2018-11-27T11:01:50.067Z,14.30
2018-11-27T11:04:18.442Z,14.40
2018-11-27T11:06:46.784Z,14.10
2018-11-27T11:09:15.173Z,14.20
2018-11-27T11:11:43.600Z,14.40
2018-11-27T11:14:12.672Z,14.40
2018-11-27T11:16:41.480Z,14.00
2018-11-27T11:19:09.842Z,13.90
2018-11-27T11:21:38.180Z,14.00
2018-11-27T11:24:06.625Z,14.10
2018-11-27T11:26:34.999Z,14.20
2018-11-27T11:29:03.349Z,14.50
2018-11-27T11:31:32.148Z,14.50
2018-11-27T11:34:00.557Z,14.60
2018-11-27T11:36:29.345Z,14.70
2018-11-27T11:38:57.721Z,14.70
2018-11-27T11:41:31.153Z,14.70
2018-11-27T11:43:54.512Z,14.80
2018-11-27T11:46:22.922Z,14.90
2018-11-27T11:48:51.392Z,14.90
2018-11-27T11:51:19.693Z,14.90
2018-11-27T11:53:48.024Z,14.90
2018-11-27T11:56:16.378Z,15.00
2018-11-27T11:58:44.748Z,15.00
2018-11-27T12:01:13.610Z,14.90
2018-11-27T12:03:41.940Z,14.60
2018-11-27T12:06:10.276Z,14.70
2018-11-27T12:08:38.605Z,14.80
2018-11-27T12:11:07.003Z,14.70
2018-11-27T12:13:35.453Z,14.80
2018-11-27T12:16:03.912Z,14.90
2018-11-27T12:18:32.317Z,14.80
2018-11-27T12:21:00.771Z,14.90
2018-11-27T12:23:29.132Z,14.90
2018-11-27T12:25:57.505Z,14.80
2018-11-27T12:28:25.863Z,14.60
2018-11-27T12:30:54.224Z,14.80
2018-11-27T12:33:22.568Z,14.90
2018-11-27T12:35:50.955Z,14.80
2018-11-27T12:38:19.366Z,14.80
2018-11-27T12:40:47.753Z,14.70
2018-11-27T12:43:16.288Z,14.90
2018-11-27T12:45:44.660Z,14.90
2018-11-27T12:48:13.012Z,14.90
2018-11-27T12:50:44.792Z,14.90
2018-11-27T12:53:16.786Z,15.00
2018-11-27T12:55:44.872Z,15.00
2018-11-27T12:58:13.241Z,15.00
2018-11-27T13:00:41.712Z,15.00
2018-11-27T13:03:10.129Z,14.70
2018-11-27T13:05:41.571Z,14.70
2018-11-27T13:08:16.275Z,14.40
2018-11-27T13:10:44.659Z,14.10
2018-11-27T13:13:12.994Z,13.90
2018-11-27T13:15:42.593Z,14.10
2018-11-27T13:18:10.976Z,14.00
2018-11-27T13:20:40.007Z,13.90
2018-11-27T13:23:11.184Z,14.00
2018-11-27T13:25:39.728Z,13.90
2018-11-27T13:28:10.389Z,14.00
2018-11-27T13:30:41.771Z,14.20
2018-11-27T13:33:17.374Z,14.00
2018-11-27T13:35:45.765Z,14.00
2018-11-27T13:38:14.126Z,14.20
2018-11-27T13:40:42.597Z,14.10
2018-11-27T13:43:18.183Z,14.10
2018-11-27T13:45:46.699Z,14.20
2018-11-27T13:48:15.184Z,14.40
2018-11-27T13:50:43.845Z,14.30
2018-11-27T13:53:12.269Z,14.30
2018-11-27T13:55:40.632Z,14.30
2018-11-27T13:58:08.991Z,14.30
2018-11-27T14:00:37.388Z,14.20
2018-11-27T14:03:10.639Z,14.10
2018-11-27T14:05:34.417Z,14.20
2018-11-27T14:08:04.365Z,14.20
2018-11-27T14:10:32.856Z,14.20
2018-11-27T14:13:01.244Z,14.20
2018-11-27T14:15:29.652Z,14.30
2018-11-27T14:17:58.035Z,14.30
2018-11-27T14:20:26.448Z,14.40
2018-11-27T14:23:01.385Z,14.30
2018-11-27T14:25:29.805Z,14.30
2018-11-27T14:27:58.185Z,14.30
2018-11-27T14:30:26.644Z,14.20
2018-11-27T14:32:54.986Z,14.20
2018-11-27T14:35:23.755Z,14.10
2018-11-27T14:37:53.341Z,14.10
2018-11-27T14:40:22.780Z,14.00
2018-11-27T14:42:51.233Z,13.90
2018-11-27T14:45:21.722Z,13.70
2018-11-27T14:47:51.079Z,13.60
2018-11-27T14:50:19.569Z,13.70
2018-11-27T14:52:47.917Z,13.80
2018-11-27T14:55:18.343Z,13.90
2018-11-27T14:57:46.829Z,14.00
2018-11-27T15:00:16.791Z,13.90
2018-11-27T15:02:45.215Z,13.80
2018-11-27T15:05:21.049Z,13.70
2018-11-27T15:07:49.360Z,13.50
2018-11-27T15:10:17.684Z,13.40
2018-11-27T15:12:46.031Z,13.50
2018-11-27T15:15:14.452Z,13.60
2018-11-27T15:17:42.816Z,13.50
2018-11-27T15:20:12.739Z,13.60
2018-11-27T15:22:41.156Z,13.60
2018-11-27T15:25:09.736Z,13.60
2018-11-27T15:27:38.091Z,13.80
2018-11-27T15:30:13.685Z,13.80
2018-11-27T15:32:42.065Z,13.70
2018-11-27T15:35:11.504Z,13.70
2018-11-27T15:37:39.872Z,13.60
2018-11-27T15:40:12.592Z,13.60
2018-11-27T15:42:41.044Z,13.50
2018-11-27T15:45:10.993Z,13.50
2018-11-27T15:47:39.323Z,13.50
2018-11-27T15:50:08.822Z,13.40
2018-11-27T15:52:37.289Z,13.30
2018-11-27T15:55:14.485Z,13.30
2018-11-27T15:57:43.135Z,13.40
2018-11-27T16:00:15.989Z,13.40
2018-11-27T16:02:44.707Z,13.50
2018-11-27T16:05:13.502Z,13.50
2018-11-27T16:07:44.765Z,13.50
2018-11-27T16:10:14.904Z,13.50
2018-11-27T16:12:43.316Z,13.50
2018-11-27T16:15:14.692Z,13.50
2018-11-27T16:17:43.472Z,13.60
2018-11-27T16:20:15.143Z,13.50
2018-11-27T16:22:44.106Z,13.40
2018-11-27T16:25:14.380Z,13.30
2018-11-27T16:27:42.820Z,13.40
2018-11-27T16:30:13.722Z,13.20
2018-11-27T16:32:42.446Z,13.10
2018-11-27T16:35:11.718Z,13.00
2018-11-27T16:37:40.481Z,12.90
2018-11-27T16:40:17.420Z,12.90
2018-11-27T16:42:45.833Z,12.70
2018-11-27T16:45:15.331Z,12.70
2018-11-27T16:47:43.973Z,12.80
2018-11-27T16:50:13.283Z,12.80
2018-11-27T16:52:41.996Z,12.80
2018-11-27T16:55:14.288Z,12.80
2018-11-27T16:57:42.827Z,12.80
2018-11-27T17:00:19.888Z,12.90
2018-11-27T17:02:50.258Z,13.10
2018-11-27T17:05:17.651Z,13.10
2018-11-27T17:07:46.044Z,13.00
2018-11-27T17:10:15.268Z,13.10
2018-11-27T17:12:43.993Z,13.10
2018-11-27T17:15:15.278Z,13.10
2018-11-27T17:17:43.669Z,13.00
2018-11-27T17:20:22.791Z,13.00
2018-11-27T17:22:51.389Z,13.00
2018-11-27T17:25:19.766Z,12.90
2018-11-27T17:27:48.331Z,12.90
2018-11-27T17:30:37.601Z,12.90
2018-11-27T17:33:13.950Z,13.00
2018-11-27T17:35:42.352Z,12.90
2018-11-27T17:38:10.829Z,12.80
2018-11-27T17:40:39.172Z,12.60
2018-11-27T17:43:08.105Z,12.70
2018-11-27T17:45:36.524Z,12.70
2018-11-27T17:48:05.316Z,12.80
2018-11-27T17:50:33.788Z,12.90
2018-11-27T17:53:02.108Z,13.00
2018-11-27T17:55:30.609Z,13.00
2018-11-27T17:57:58.936Z,13.00
2018-11-27T18:00:28.261Z,13.00
2018-11-27T18:02:58.204Z,13.00
2018-11-27T18:05:26.650Z,12.80
2018-11-27T18:07:55.016Z,12.60
2018-11-27T18:10:23.341Z,12.40
2018-11-27T18:12:51.909Z,12.30
2018-11-27T18:15:21.252Z,12.30
2018-11-27T18:17:49.608Z,12.40
2018-11-27T18:20:18.106Z,12.50
2018-11-27T18:22:46.558Z,12.70
2018-11-27T18:25:15.893Z,12.50
2018-11-27T18:27:45.389Z,12.40
2018-11-27T18:30:18.554Z,12.40
2018-11-27T18:32:46.992Z,12.50
2018-11-27T18:35:17.956Z,12.60
2018-11-27T18:37:46.608Z,12.60
2018-11-27T18:40:15.719Z,12.60
2018-11-27T18:42:44.544Z,12.60
2018-11-27T18:45:17.009Z,12.60
2018-11-27T18:47:45.511Z,12.70
2018-11-27T18:50:13.933Z,12.80
2018-11-27T18:52:42.830Z,12.80
2018-11-27T18:55:12.282Z,12.70
2018-11-27T18:57:41.137Z,12.80
2018-11-27T19:00:29.085Z,12.80
2018-11-27T19:02:57.464Z,12.80
2018-11-27T19:05:25.797Z,12.70
2018-11-27T19:07:54.142Z,12.70
2018-11-27T19:10:32.532Z,12.60
2018-11-27T19:13:01.059Z,12.60
2018-11-27T19:15:36.504Z,12.40
2018-11-27T19:18:13.121Z,12.20
2018-11-27T19:20:41.454Z,12.40
2018-11-27T19:23:12.692Z,12.50
2018-11-27T19:25:41.109Z,12.50
2018-11-27T19:28:09.677Z,12.50
2018-11-27T19:30:38.407Z,12.50
2018-11-27T19:33:07.527Z,12.60
2018-11-27T19:35:36.018Z,12.70
2018-11-27T19:38:05.571Z,12.50
2018-11-27T19:40:34.187Z,12.40
2018-11-27T19:43:02.704Z,12.50
2018-11-27T19:45:31.838Z,12.40
2018-11-27T19:48:00.304Z,12.40
2018-11-27T19:50:28.653Z,12.30
2018-11-27T19:52:57.568Z,12.30
2018-11-27T19:55:25.980Z,12.40
2018-11-27T19:57:54.316Z,12.50
2018-11-27T20:00:24.440Z,12.60
2018-11-27T20:02:52.960Z,12.50
2018-11-27T20:05:28.261Z,12.40
2018-11-27T20:07:56.827Z,12.40
2018-11-27T20:10:25.287Z,12.40
2018-11-27T20:12:53.715Z,12.10
2018-11-27T20:15:23.497Z,12.10
2018-11-27T20:17:52.278Z,12.20
2018-11-27T20:20:22.503Z,12.20
2018-11-27T20:22:51.248Z,12.20
2018-11-27T20:25:20.617Z,12.20
2018-11-27T20:27:49.020Z,12.10
2018-11-27T20:30:21.340Z,12.20
2018-11-27T20:32:51.871Z,12.20
2018-11-27T20:35:20.335Z,12.10
2018-11-27T20:37:49.882Z,12.10
2018-11-27T20:40:18.940Z,12.10
2018-11-27T20:42:47.364Z,12.20
2018-11-27T20:45:21.580Z,12.30
2018-11-27T20:48:00.893Z,12.20
2018-11-27T20:50:29.294Z,12.10
2018-11-27T20:52:58.501Z,12.10
2018-11-27T20:55:26.859Z,11.90
2018-11-27T20:57:57.319Z,12.00
2018-11-27T21:00:35.833Z,12.00
2018-11-27T21:03:05.773Z,12.10
2018-11-27T21:05:34.130Z,12.10
2018-11-27T21:08:02.656Z,12.20
2018-11-27T21:10:31.029Z,12.20
2018-11-27T21:12:59.408Z,12.20
2018-11-27T21:15:27.811Z,12.30
2018-11-27T21:17:56.188Z,12.30
2018-11-27T21:20:24.549Z,12.30
2018-11-27T21:22:53.032Z,12.30
2018-11-27T21:25:23.583Z,12.30
2018-11-27T21:28:03.372Z,12.00
2018-11-27T21:30:31.791Z,12.00
2018-11-27T21:33:00.232Z,12.00
2018-11-27T21:35:28.959Z,11.60
2018-11-27T21:37:57.361Z,11.80
2018-11-27T21:40:25.693Z,12.00
2018-11-27T21:42:54.085Z,12.10
2018-11-27T21:45:24.575Z,12.00
2018-11-27T21:47:53.376Z,11.80
2018-11-27T21:50:28.451Z,11.70
2018-11-27T21:52:58.299Z,12.00
2018-11-27T21:55:26.770Z,12.00
2018-11-27T21:57:55.391Z,12.00
2018-11-27T22:00:24.696Z,11.90
2018-11-27T22:02:53.236Z,11.80
2018-11-27T22:05:21.657Z,11.80
2018-11-27T22:07:50.107Z,11.80
2018-11-27T22:10:19.812Z,12.00
2018-11-27T22:12:50.451Z,12.10
2018-11-27T22:15:35.507Z,12.10
2018-11-27T22:18:05.001Z,12.10
2018-11-27T22:20:33.341Z,12.20
2018-11-27T22:23:01.693Z,12.20
2018-11-27T22:25:30.129Z,12.00
2018-11-27T22:27:58.501Z,11.90
2018-11-27T22:30:26.931Z,11.90
2018-11-27T22:32:55.656Z,12.00
2018-11-27T22:35:24.164Z,11.90
2018-11-27T22:37:52.710Z,12.00
2018-11-27T22:40:22.664Z,12.00
2018-11-27T22:42:51.988Z,11.90
2018-11-27T22:45:32.661Z,12.10
2018-11-27T22:48:01.044Z,12.00
2018-11-27T22:50:29.381Z,12.00
2018-11-27T22:52:57.940Z,11.80
2018-11-27T22:55:26.548Z,11.80
2018-11-27T22:57:54.933Z,11.80
2018-11-27T23:00:33.723Z,12.00
2018-11-27T23:03:02.405Z,12.00
2018-11-27T23:05:30.800Z,12.00
2018-11-27T23:07:59.240Z,12.10
2018-11-27T23:10:28.998Z,12.10
2018-11-27T23:12:57.407Z,12.20
2018-11-27T23:15:25.880Z,12.20
2018-11-27T23:17:54.372Z,12.10
2018-11-27T23:20:22.732Z,12.10
2018-11-27T23:22:51.116Z,12.10
2018-11-27T23:25:19.673Z,12.10
2018-11-27T23:27:48.191Z,12.10
2018-11-27T23:30:21.036Z,12.10
2018-11-27T23:32:49.820Z,12.00
2018-11-27T23:35:18.186Z,12.00
2018-11-27T23:37:46.612Z,12.00
2018-11-27T23:40:17.285Z,12.00
2018-11-27T23:42:46.032Z,12.10
2018-11-27T23:45:18.656Z,12.00
2018-11-27T23:47:47.025Z,11.80
2018-11-27T23:50:16.592Z,11.70
2018-11-27T23:52:45.156Z,11.80
2018-11-27T23:55:14.335Z,11.90
2018-11-27T23:57:43.382Z,11.90
